sensor_id;sensor_type;location;lat;lon;timestamp;P1;durP1;ratioP1;P2;durP2;ratioP2
12846;SDS011;6492;48.128;8.320;2022-09-17T00:01:45;2.73;;;1.90;;
12846;SDS011;6492;48.128;8.320;2022-09-17T00:05:47;2.60;;;2.23;;
12846;SDS011;6492;48.128;8.320;2022-09-17T00:09:48;3.03;;;2.10;;
12846;SDS011;6492;48.128;8.320;2022-09-17T00:13:52;3.03;;;2.07;;
12846;SDS011;6492;48.128;8.320;2022-09-17T00:17:55;1.73;;;1.60;;
12846;SDS011;6492;48.128;8.320;2022-09-17T00:21:57;2.80;;;1.97;;
12846;SDS011;6492;48.128;8.320;2022-09-17T00:25:59;2.43;;;2.23;;
12846;SDS011;6492;48.128;8.320;2022-09-17T00:30:08;3.03;;;2.00;;
12846;SDS011;6492;48.128;8.320;2022-09-17T00:34:11;3.10;;;1.70;;
12846;SDS011;6492;48.128;8.320;2022-09-17T00:38:13;2.20;;;2.00;;
12846;SDS011;6492;48.128;8.320;2022-09-17T00:42:15;2.20;;;2.00;;
12846;SDS011;6492;48.128;8.320;2022-09-17T00:46:23;2.90;;;1.83;;
12846;SDS011;6492;48.128;8.320;2022-09-17T00:50:35;3.07;;;2.07;;
12846;SDS011;6492;48.128;8.320;2022-09-17T00:54:40;2.40;;;2.20;;
12846;SDS011;6492;48.128;8.320;2022-09-17T00:58:52;2.33;;;2.10;;
12846;SDS011;6492;48.128;8.320;2022-09-17T01:02:57;2.73;;;2.53;;
12846;SDS011;6492;48.128;8.320;2022-09-17T01:07:00;3.30;;;2.60;;
12846;SDS011;6492;48.128;8.320;2022-09-17T01:11:13;3.13;;;2.60;;
12846;SDS011;6492;48.128;8.320;2022-09-17T01:15:32;2.60;;;2.40;;
12846;SDS011;6492;48.128;8.320;2022-09-17T01:24:23;4.00;;;2.43;;
12846;SDS011;6492;48.128;8.320;2022-09-17T01:28:40;3.60;;;2.60;;
12846;SDS011;6492;48.128;8.320;2022-09-17T01:32:46;3.10;;;2.80;;
12846;SDS011;6492;48.128;8.320;2022-09-17T01:37:00;3.67;;;3.37;;
12846;SDS011;6492;48.128;8.320;2022-09-17T01:41:05;4.53;;;3.63;;
12846;SDS011;6492;48.128;8.320;2022-09-17T01:45:14;4.20;;;3.80;;
12846;SDS011;6492;48.128;8.320;2022-09-17T01:49:20;5.07;;;3.80;;
12846;SDS011;6492;48.128;8.320;2022-09-17T01:53:27;4.37;;;3.97;;
12846;SDS011;6492;48.128;8.320;2022-09-17T01:57:35;4.00;;;3.60;;
12846;SDS011;6492;48.128;8.320;2022-09-17T02:01:41;3.60;;;3.30;;
12846;SDS011;6492;48.128;8.320;2022-09-17T02:05:48;4.17;;;3.70;;
12846;SDS011;6492;48.128;8.320;2022-09-17T02:09:55;3.63;;;3.27;;
12846;SDS011;6492;48.128;8.320;2022-09-17T02:14:02;4.27;;;3.33;;
12846;SDS011;6492;48.128;8.320;2022-09-17T02:18:09;4.40;;;3.23;;
12846;SDS011;6492;48.128;8.320;2022-09-17T02:22:20;5.57;;;3.80;;
12846;SDS011;6492;48.128;8.320;2022-09-17T02:26:25;4.43;;;3.23;;
12846;SDS011;6492;48.128;8.320;2022-09-17T02:30:28;4.07;;;3.60;;
12846;SDS011;6492;48.128;8.320;2022-09-17T02:34:31;4.93;;;3.87;;
12846;SDS011;6492;48.128;8.320;2022-09-17T02:38:36;3.77;;;3.40;;
12846;SDS011;6492;48.128;8.320;2022-09-17T02:42:52;3.40;;;3.10;;
12846;SDS011;6492;48.128;8.320;2022-09-17T02:47:18;3.33;;;3.03;;
12846;SDS011;6492;48.128;8.320;2022-09-17T02:51:39;4.30;;;3.60;;
12846;SDS011;6492;48.128;8.320;2022-09-17T02:55:56;3.90;;;3.30;;
12846;SDS011;6492;48.128;8.320;2022-09-17T03:00:06;4.47;;;3.13;;
12846;SDS011;6492;48.128;8.320;2022-09-17T03:04:14;3.10;;;2.80;;
12846;SDS011;6492;48.128;8.320;2022-09-17T03:08:19;3.03;;;2.77;;
12846;SDS011;6492;48.128;8.320;2022-09-17T03:12:30;4.80;;;3.30;;
12846;SDS011;6492;48.128;8.320;2022-09-17T03:16:32;3.00;;;2.80;;
12846;SDS011;6492;48.128;8.320;2022-09-17T03:20:34;3.90;;;3.03;;
12846;SDS011;6492;48.128;8.320;2022-09-17T03:24:36;5.70;;;3.10;;
12846;SDS011;6492;48.128;8.320;2022-09-17T03:28:39;6.43;;;3.10;;
12846;SDS011;6492;48.128;8.320;2022-09-17T03:32:41;3.97;;;2.80;;
12846;SDS011;6492;48.128;8.320;2022-09-17T03:36:43;2.70;;;2.50;;
12846;SDS011;6492;48.128;8.320;2022-09-17T03:40:55;5.87;;;2.63;;
12846;SDS011;6492;48.128;8.320;2022-09-17T03:44:59;2.63;;;2.17;;
12846;SDS011;6492;48.128;8.320;2022-09-17T03:49:01;3.50;;;2.47;;
12846;SDS011;6492;48.128;8.320;2022-09-17T03:53:03;2.10;;;2.00;;
12846;SDS011;6492;48.128;8.320;2022-09-17T03:57:05;6.13;;;2.20;;
12846;SDS011;6492;48.128;8.320;2022-09-17T04:01:08;2.27;;;2.07;;
12846;SDS011;6492;48.128;8.320;2022-09-17T04:05:10;2.40;;;2.10;;
12846;SDS011;6492;48.128;8.320;2022-09-17T04:09:12;3.10;;;2.00;;
12846;SDS011;6492;48.128;8.320;2022-09-17T04:13:14;3.07;;;1.80;;
12846;SDS011;6492;48.128;8.320;2022-09-17T04:17:18;2.47;;;1.93;;
12846;SDS011;6492;48.128;8.320;2022-09-17T04:21:20;3.10;;;2.20;;
12846;SDS011;6492;48.128;8.320;2022-09-17T04:25:22;3.73;;;2.37;;
12846;SDS011;6492;48.128;8.320;2022-09-17T04:29:32;4.03;;;2.40;;
12846;SDS011;6492;48.128;8.320;2022-09-17T04:33:35;4.13;;;3.13;;
12846;SDS011;6492;48.128;8.320;2022-09-17T04:37:37;3.20;;;2.77;;
12846;SDS011;6492;48.128;8.320;2022-09-17T04:41:39;4.13;;;3.20;;
12846;SDS011;6492;48.128;8.320;2022-09-17T04:45:43;4.73;;;3.30;;
12846;SDS011;6492;48.128;8.320;2022-09-17T04:49:47;6.40;;;3.40;;
12846;SDS011;6492;48.128;8.320;2022-09-17T04:53:49;4.67;;;3.17;;
12846;SDS011;6492;48.128;8.320;2022-09-17T04:57:51;3.30;;;2.87;;
12846;SDS011;6492;48.128;8.320;2022-09-17T05:01:53;4.30;;;3.43;;
12846;SDS011;6492;48.128;8.320;2022-09-17T05:05:57;4.17;;;3.40;;
12846;SDS011;6492;48.128;8.320;2022-09-17T05:14:23;3.57;;;3.20;;
12846;SDS011;6492;48.128;8.320;2022-09-17T05:18:25;4.77;;;2.80;;
12846;SDS011;6492;48.128;8.320;2022-09-17T05:22:28;4.30;;;3.10;;
12846;SDS011;6492;48.128;8.320;2022-09-17T05:26:30;5.13;;;3.00;;
12846;SDS011;6492;48.128;8.320;2022-09-17T05:30:32;2.70;;;2.37;;
12846;SDS011;6492;48.128;8.320;2022-09-17T05:34:34;4.13;;;2.60;;
12846;SDS011;6492;48.128;8.320;2022-09-17T05:38:37;3.87;;;2.70;;
12846;SDS011;6492;48.128;8.320;2022-09-17T05:42:39;3.40;;;3.10;;
12846;SDS011;6492;48.128;8.320;2022-09-17T05:46:41;3.53;;;2.50;;
12846;SDS011;6492;48.128;8.320;2022-09-17T05:50:43;3.17;;;2.50;;
12846;SDS011;6492;48.128;8.320;2022-09-17T05:54:46;4.43;;;2.70;;
12846;SDS011;6492;48.128;8.320;2022-09-17T05:58:48;11.53;;;3.23;;
12846;SDS011;6492;48.128;8.320;2022-09-17T06:02:52;2.93;;;2.30;;
12846;SDS011;6492;48.128;8.320;2022-09-17T06:11:29;4.53;;;2.80;;
12846;SDS011;6492;48.128;8.320;2022-09-17T06:15:31;4.10;;;2.50;;
12846;SDS011;6492;48.128;8.320;2022-09-17T06:19:44;4.70;;;2.80;;
12846;SDS011;6492;48.128;8.320;2022-09-17T06:23:45;4.33;;;2.80;;
12846;SDS011;6492;48.128;8.320;2022-09-17T06:27:49;5.23;;;2.33;;
12846;SDS011;6492;48.128;8.320;2022-09-17T06:31:51;3.03;;;2.40;;
12846;SDS011;6492;48.128;8.320;2022-09-17T06:35:55;3.13;;;2.40;;
12846;SDS011;6492;48.128;8.320;2022-09-17T06:39:59;2.87;;;2.50;;
12846;SDS011;6492;48.128;8.320;2022-09-17T06:44:15;8.07;;;3.17;;
12846;SDS011;6492;48.128;8.320;2022-09-17T06:48:34;5.87;;;2.50;;
12846;SDS011;6492;48.128;8.320;2022-09-17T06:52:47;5.43;;;2.93;;
12846;SDS011;6492;48.128;8.320;2022-09-17T06:56:59;4.80;;;2.73;;
12846;SDS011;6492;48.128;8.320;2022-09-17T07:05:16;5.43;;;2.57;;
12846;SDS011;6492;48.128;8.320;2022-09-17T07:09:18;3.77;;;2.70;;
12846;SDS011;6492;48.128;8.320;2022-09-17T07:13:19;4.67;;;2.83;;
12846;SDS011;6492;48.128;8.320;2022-09-17T07:17:23;2.70;;;2.30;;
12846;SDS011;6492;48.128;8.320;2022-09-17T07:21:25;3.90;;;2.37;;
12846;SDS011;6492;48.128;8.320;2022-09-17T07:25:27;3.03;;;2.10;;
12846;SDS011;6492;48.128;8.320;2022-09-17T07:29:29;5.23;;;3.10;;
12846;SDS011;6492;48.128;8.320;2022-09-17T07:33:33;2.40;;;2.17;;
12846;SDS011;6492;48.128;8.320;2022-09-17T07:37:35;3.87;;;2.43;;
12846;SDS011;6492;48.128;8.320;2022-09-17T07:41:37;3.00;;;2.23;;
12846;SDS011;6492;48.128;8.320;2022-09-17T07:45:39;5.77;;;2.30;;
12846;SDS011;6492;48.128;8.320;2022-09-17T07:49:43;3.30;;;2.10;;
12846;SDS011;6492;48.128;8.320;2022-09-17T07:53:44;4.13;;;2.00;;
12846;SDS011;6492;48.128;8.320;2022-09-17T07:57:49;2.97;;;1.70;;
12846;SDS011;6492;48.128;8.320;2022-09-17T08:01:52;4.00;;;2.00;;
12846;SDS011;6492;48.128;8.320;2022-09-17T08:06:00;4.43;;;1.90;;
12846;SDS011;6492;48.128;8.320;2022-09-17T08:14:45;3.23;;;1.87;;
12846;SDS011;6492;48.128;8.320;2022-09-17T08:18:47;3.10;;;1.83;;
12846;SDS011;6492;48.128;8.320;2022-09-17T08:22:51;3.07;;;2.40;;
12846;SDS011;6492;48.128;8.320;2022-09-17T08:26:58;2.13;;;1.70;;
12846;SDS011;6492;48.128;8.320;2022-09-17T08:31:01;3.90;;;1.60;;
12846;SDS011;6492;48.128;8.320;2022-09-17T08:35:04;3.47;;;1.70;;
12846;SDS011;6492;48.128;8.320;2022-09-17T08:39:07;2.27;;;1.63;;
12846;SDS011;6492;48.128;8.320;2022-09-17T08:43:12;2.80;;;1.63;;
12846;SDS011;6492;48.128;8.320;2022-09-17T08:47:20;2.50;;;1.93;;
12846;SDS011;6492;48.128;8.320;2022-09-17T08:51:27;4.63;;;1.87;;
12846;SDS011;6492;48.128;8.320;2022-09-17T08:55:41;2.47;;;1.90;;
12846;SDS011;6492;48.128;8.320;2022-09-17T08:59:48;2.77;;;2.00;;
12846;SDS011;6492;48.128;8.320;2022-09-17T09:08:34;2.23;;;2.00;;
12846;SDS011;6492;48.128;8.320;2022-09-17T09:12:41;2.63;;;1.67;;
12846;SDS011;6492;48.128;8.320;2022-09-17T09:21:00;3.00;;;1.80;;
12846;SDS011;6492;48.128;8.320;2022-09-17T09:25:17;2.37;;;2.17;;
12846;SDS011;6492;48.128;8.320;2022-09-17T09:29:25;2.73;;;1.80;;
12846;SDS011;6492;48.128;8.320;2022-09-17T09:33:42;2.77;;;2.00;;
12846;SDS011;6492;48.128;8.320;2022-09-17T09:37:49;2.53;;;2.07;;
12846;SDS011;6492;48.128;8.320;2022-09-17T09:41:57;4.50;;;2.63;;
12846;SDS011;6492;48.128;8.320;2022-09-17T09:51:00;5.20;;;3.87;;
12846;SDS011;6492;48.128;8.320;2022-09-17T09:55:15;3.30;;;2.23;;
12846;SDS011;6492;48.128;8.320;2022-09-17T09:59:32;2.70;;;2.50;;
12846;SDS011;6492;48.128;8.320;2022-09-17T10:03:35;1.93;;;1.47;;
12846;SDS011;6492;48.128;8.320;2022-09-17T10:07:43;1.70;;;1.23;;
12846;SDS011;6492;48.128;8.320;2022-09-17T10:11:58;2.57;;;2.27;;
12846;SDS011;6492;48.128;8.320;2022-09-17T10:16:14;4.57;;;1.63;;
12846;SDS011;6492;48.128;8.320;2022-09-17T10:20:17;1.53;;;1.30;;
12846;SDS011;6492;48.128;8.320;2022-09-17T10:24:22;1.97;;;1.13;;
12846;SDS011;6492;48.128;8.320;2022-09-17T10:28:31;1.50;;;1.40;;
12846;SDS011;6492;48.128;8.320;2022-09-17T10:32:48;1.33;;;1.23;;
12846;SDS011;6492;48.128;8.320;2022-09-17T10:37:30;1.27;;;1.17;;
12846;SDS011;6492;48.128;8.320;2022-09-17T10:41:43;4.37;;;2.60;;
12846;SDS011;6492;48.128;8.320;2022-09-17T10:45:55;2.30;;;1.60;;
12846;SDS011;6492;48.128;8.320;2022-09-17T10:50:01;2.27;;;2.00;;
12846;SDS011;6492;48.128;8.320;2022-09-17T10:54:22;2.63;;;1.90;;
12846;SDS011;6492;48.128;8.320;2022-09-17T10:58:44;2.20;;;2.00;;
12846;SDS011;6492;48.128;8.320;2022-09-17T11:03:08;2.50;;;2.30;;
12846;SDS011;6492;48.128;8.320;2022-09-17T11:07:45;2.97;;;2.20;;
12846;SDS011;6492;48.128;8.320;2022-09-17T11:16:36;2.90;;;2.00;;
12846;SDS011;6492;48.128;8.320;2022-09-17T11:20:57;3.63;;;2.67;;
12846;SDS011;6492;48.128;8.320;2022-09-17T11:25:16;3.23;;;2.80;;
12846;SDS011;6492;48.128;8.320;2022-09-17T11:29:31;3.50;;;2.70;;
12846;SDS011;6492;48.128;8.320;2022-09-17T11:38:26;3.10;;;2.50;;
12846;SDS011;6492;48.128;8.320;2022-09-17T11:42:38;3.37;;;2.50;;
12846;SDS011;6492;48.128;8.320;2022-09-17T11:46:46;3.93;;;2.27;;
12846;SDS011;6492;48.128;8.320;2022-09-17T11:51:09;4.33;;;2.40;;
12846;SDS011;6492;48.128;8.320;2022-09-17T11:55:22;3.50;;;2.20;;
12846;SDS011;6492;48.128;8.320;2022-09-17T11:59:40;3.07;;;2.33;;
12846;SDS011;6492;48.128;8.320;2022-09-17T12:03:47;2.93;;;2.63;;
12846;SDS011;6492;48.128;8.320;2022-09-17T12:07:54;7.53;;;2.13;;
12846;SDS011;6492;48.128;8.320;2022-09-17T12:12:04;2.30;;;2.10;;
12846;SDS011;6492;48.128;8.320;2022-09-17T12:16:11;2.93;;;2.20;;
12846;SDS011;6492;48.128;8.320;2022-09-17T12:20:18;3.40;;;2.10;;
12846;SDS011;6492;48.128;8.320;2022-09-17T12:24:27;1.97;;;1.70;;
12846;SDS011;6492;48.128;8.320;2022-09-17T12:28:30;3.83;;;2.43;;
12846;SDS011;6492;48.128;8.320;2022-09-17T12:37:03;2.83;;;1.93;;
12846;SDS011;6492;48.128;8.320;2022-09-17T12:41:12;2.77;;;1.60;;
12846;SDS011;6492;48.128;8.320;2022-09-17T12:45:21;2.60;;;1.50;;
12846;SDS011;6492;48.128;8.320;2022-09-17T12:49:39;2.17;;;1.67;;
12846;SDS011;6492;48.128;8.320;2022-09-17T12:53:57;2.00;;;1.33;;
12846;SDS011;6492;48.128;8.320;2022-09-17T13:02:38;3.10;;;1.50;;
12846;SDS011;6492;48.128;8.320;2022-09-17T13:07:09;2.17;;;1.20;;
12846;SDS011;6492;48.128;8.320;2022-09-17T13:11:44;1.67;;;1.50;;
12846;SDS011;6492;48.128;8.320;2022-09-17T13:15:56;1.00;;;0.90;;
12846;SDS011;6492;48.128;8.320;2022-09-17T13:20:11;1.10;;;1.00;;
12846;SDS011;6492;48.128;8.320;2022-09-17T13:24:21;2.20;;;1.10;;
12846;SDS011;6492;48.128;8.320;2022-09-17T13:28:26;2.07;;;1.17;;
12846;SDS011;6492;48.128;8.320;2022-09-17T13:32:40;1.63;;;1.20;;
12846;SDS011;6492;48.128;8.320;2022-09-17T13:36:45;1.40;;;1.30;;
12846;SDS011;6492;48.128;8.320;2022-09-17T13:40:50;2.90;;;1.50;;
12846;SDS011;6492;48.128;8.320;2022-09-17T13:45:00;2.57;;;1.40;;
12846;SDS011;6492;48.128;8.320;2022-09-17T13:49:04;2.10;;;1.30;;
12846;SDS011;6492;48.128;8.320;2022-09-17T13:53:17;2.50;;;1.50;;
12846;SDS011;6492;48.128;8.320;2022-09-17T13:57:27;3.00;;;1.70;;
12846;SDS011;6492;48.128;8.320;2022-09-17T14:01:54;2.57;;;1.43;;
12846;SDS011;6492;48.128;8.320;2022-09-17T14:10:39;2.53;;;2.07;;
12846;SDS011;6492;48.128;8.320;2022-09-17T14:14:49;2.57;;;1.80;;
12846;SDS011;6492;48.128;8.320;2022-09-17T14:18:57;4.07;;;2.10;;
12846;SDS011;6492;48.128;8.320;2022-09-17T14:23:01;4.90;;;2.10;;
12846;SDS011;6492;48.128;8.320;2022-09-17T14:27:09;3.40;;;2.20;;
12846;SDS011;6492;48.128;8.320;2022-09-17T14:31:20;2.73;;;1.60;;
12846;SDS011;6492;48.128;8.320;2022-09-17T14:35:28;2.33;;;1.70;;
12846;SDS011;6492;48.128;8.320;2022-09-17T14:39:36;5.33;;;2.47;;
12846;SDS011;6492;48.128;8.320;2022-09-17T14:43:40;3.93;;;2.00;;
12846;SDS011;6492;48.128;8.320;2022-09-17T14:47:49;3.10;;;1.70;;
12846;SDS011;6492;48.128;8.320;2022-09-17T14:52:18;2.63;;;1.87;;
12846;SDS011;6492;48.128;8.320;2022-09-17T14:56:25;2.50;;;2.03;;
12846;SDS011;6492;48.128;8.320;2022-09-17T15:00:27;2.87;;;2.10;;
12846;SDS011;6492;48.128;8.320;2022-09-17T15:04:35;3.57;;;1.90;;
12846;SDS011;6492;48.128;8.320;2022-09-17T15:08:36;2.33;;;1.50;;
12846;SDS011;6492;48.128;8.320;2022-09-17T15:12:45;6.00;;;1.80;;
12846;SDS011;6492;48.128;8.320;2022-09-17T15:16:50;3.00;;;1.67;;
12846;SDS011;6492;48.128;8.320;2022-09-17T15:20:56;2.07;;;1.70;;
12846;SDS011;6492;48.128;8.320;2022-09-17T15:25:02;2.73;;;1.40;;
12846;SDS011;6492;48.128;8.320;2022-09-17T15:29:09;4.43;;;1.43;;
12846;SDS011;6492;48.128;8.320;2022-09-17T15:33:12;2.03;;;1.47;;
12846;SDS011;6492;48.128;8.320;2022-09-17T15:37:17;2.90;;;1.60;;
12846;SDS011;6492;48.128;8.320;2022-09-17T15:41:22;3.07;;;1.40;;
12846;SDS011;6492;48.128;8.320;2022-09-17T15:45:45;2.27;;;1.30;;
12846;SDS011;6492;48.128;8.320;2022-09-17T15:54:24;1.47;;;1.17;;
12846;SDS011;6492;48.128;8.320;2022-09-17T15:58:30;1.53;;;1.17;;
12846;SDS011;6492;48.128;8.320;2022-09-17T16:02:35;1.90;;;1.40;;
12846;SDS011;6492;48.128;8.320;2022-09-17T16:06:37;2.40;;;1.50;;
12846;SDS011;6492;48.128;8.320;2022-09-17T16:10:41;2.27;;;1.20;;
12846;SDS011;6492;48.128;8.320;2022-09-17T16:19:16;1.40;;;1.07;;
12846;SDS011;6492;48.128;8.320;2022-09-17T16:23:18;2.63;;;1.20;;
12846;SDS011;6492;48.128;8.320;2022-09-17T16:27:22;2.27;;;1.47;;
12846;SDS011;6492;48.128;8.320;2022-09-17T16:31:27;1.53;;;1.43;;
12846;SDS011;6492;48.128;8.320;2022-09-17T16:35:29;1.83;;;1.60;;
12846;SDS011;6492;48.128;8.320;2022-09-17T16:43:46;3.47;;;1.37;;
12846;SDS011;6492;48.128;8.320;2022-09-17T16:47:48;3.47;;;1.50;;
12846;SDS011;6492;48.128;8.320;2022-09-17T16:51:58;3.37;;;1.63;;
12846;SDS011;6492;48.128;8.320;2022-09-17T16:56:00;2.63;;;1.80;;
12846;SDS011;6492;48.128;8.320;2022-09-17T17:04:25;2.53;;;1.30;;
12846;SDS011;6492;48.128;8.320;2022-09-17T17:08:27;2.90;;;1.80;;
12846;SDS011;6492;48.128;8.320;2022-09-17T17:12:29;3.43;;;1.37;;
12846;SDS011;6492;48.128;8.320;2022-09-17T17:16:32;2.00;;;1.40;;
12846;SDS011;6492;48.128;8.320;2022-09-17T17:20:34;2.57;;;1.50;;
12846;SDS011;6492;48.128;8.320;2022-09-17T17:24:36;3.67;;;1.67;;
12846;SDS011;6492;48.128;8.320;2022-09-17T17:33:13;1.40;;;1.30;;
12846;SDS011;6492;48.128;8.320;2022-09-17T17:37:15;2.67;;;1.63;;
12846;SDS011;6492;48.128;8.320;2022-09-17T17:41:18;3.30;;;2.03;;
12846;SDS011;6492;48.128;8.320;2022-09-17T17:45:21;2.53;;;1.63;;
12846;SDS011;6492;48.128;8.320;2022-09-17T17:49:27;2.37;;;2.10;;
12846;SDS011;6492;48.128;8.320;2022-09-17T17:53:31;2.37;;;1.43;;
12846;SDS011;6492;48.128;8.320;2022-09-17T17:57:33;2.50;;;1.37;;
12846;SDS011;6492;48.128;8.320;2022-09-17T18:01:34;1.77;;;1.60;;
12846;SDS011;6492;48.128;8.320;2022-09-17T18:05:39;2.13;;;1.63;;
12846;SDS011;6492;48.128;8.320;2022-09-17T18:14:25;1.50;;;1.40;;
12846;SDS011;6492;48.128;8.320;2022-09-17T18:22:58;2.37;;;2.17;;
12846;SDS011;6492;48.128;8.320;2022-09-17T18:31:27;2.07;;;1.60;;
12846;SDS011;6492;48.128;8.320;2022-09-17T18:35:33;1.60;;;1.30;;
12846;SDS011;6492;48.128;8.320;2022-09-17T18:39:43;1.97;;;1.33;;
12846;SDS011;6492;48.128;8.320;2022-09-17T18:43:45;1.73;;;1.60;;
12846;SDS011;6492;48.128;8.320;2022-09-17T18:47:46;2.27;;;1.37;;
12846;SDS011;6492;48.128;8.320;2022-09-17T18:51:48;2.30;;;1.80;;
12846;SDS011;6492;48.128;8.320;2022-09-17T18:55:52;5.53;;;3.37;;
12846;SDS011;6492;48.128;8.320;2022-09-17T18:59:54;6.67;;;4.57;;
12846;SDS011;6492;48.128;8.320;2022-09-17T19:03:57;4.30;;;3.27;;
12846;SDS011;6492;48.128;8.320;2022-09-17T19:07:59;4.13;;;2.23;;
12846;SDS011;6492;48.128;8.320;2022-09-17T19:12:03;3.80;;;2.80;;
12846;SDS011;6492;48.128;8.320;2022-09-17T19:20:30;4.17;;;2.00;;
12846;SDS011;6492;48.128;8.320;2022-09-17T19:24:36;4.83;;;2.00;;
12846;SDS011;6492;48.128;8.320;2022-09-17T19:28:39;4.70;;;2.07;;
12846;SDS011;6492;48.128;8.320;2022-09-17T19:32:47;3.57;;;2.33;;
12846;SDS011;6492;48.128;8.320;2022-09-17T19:36:49;4.03;;;2.40;;
12846;SDS011;6492;48.128;8.320;2022-09-17T19:40:55;3.23;;;2.20;;
12846;SDS011;6492;48.128;8.320;2022-09-17T19:44:59;4.07;;;2.20;;
12846;SDS011;6492;48.128;8.320;2022-09-17T19:49:17;3.37;;;2.17;;
12846;SDS011;6492;48.128;8.320;2022-09-17T19:53:19;3.03;;;1.97;;
12846;SDS011;6492;48.128;8.320;2022-09-17T19:57:29;2.97;;;2.07;;
12846;SDS011;6492;48.128;8.320;2022-09-17T20:01:32;3.50;;;2.00;;
12846;SDS011;6492;48.128;8.320;2022-09-17T20:05:34;4.13;;;1.70;;
12846;SDS011;6492;48.128;8.320;2022-09-17T20:09:36;1.97;;;1.80;;
12846;SDS011;6492;48.128;8.320;2022-09-17T20:13:38;2.53;;;1.73;;
12846;SDS011;6492;48.128;8.320;2022-09-17T20:17:41;3.00;;;1.73;;
12846;SDS011;6492;48.128;8.320;2022-09-17T20:21:43;2.63;;;2.00;;
12846;SDS011;6492;48.128;8.320;2022-09-17T20:25:49;3.57;;;2.27;;
12846;SDS011;6492;48.128;8.320;2022-09-17T20:29:51;4.27;;;2.47;;
12846;SDS011;6492;48.128;8.320;2022-09-17T20:33:55;4.00;;;2.37;;
12846;SDS011;6492;48.128;8.320;2022-09-17T20:37:58;3.13;;;2.20;;
12846;SDS011;6492;48.128;8.320;2022-09-17T20:42:01;5.23;;;2.17;;
12846;SDS011;6492;48.128;8.320;2022-09-17T20:46:03;4.80;;;2.60;;
12846;SDS011;6492;48.128;8.320;2022-09-17T20:50:08;4.50;;;2.50;;
12846;SDS011;6492;48.128;8.320;2022-09-17T20:54:10;3.90;;;2.00;;
12846;SDS011;6492;48.128;8.320;2022-09-17T20:58:11;4.30;;;3.17;;
12846;SDS011;6492;48.128;8.320;2022-09-17T21:02:16;6.03;;;3.60;;
12846;SDS011;6492;48.128;8.320;2022-09-17T21:06:21;15.93;;;14.37;;
12846;SDS011;6492;48.128;8.320;2022-09-17T21:10:24;25.70;;;23.00;;
12846;SDS011;6492;48.128;8.320;2022-09-17T21:14:25;9.40;;;7.53;;
12846;SDS011;6492;48.128;8.320;2022-09-17T21:18:27;4.47;;;2.70;;
12846;SDS011;6492;48.128;8.320;2022-09-17T21:22:30;9.50;;;7.67;;
12846;SDS011;6492;48.128;8.320;2022-09-17T21:26:33;7.00;;;5.07;;
12846;SDS011;6492;48.128;8.320;2022-09-17T21:30:35;7.20;;;3.70;;
12846;SDS011;6492;48.128;8.320;2022-09-17T21:34:36;5.40;;;2.20;;
12846;SDS011;6492;48.128;8.320;2022-09-17T21:38:41;4.77;;;2.33;;
12846;SDS011;6492;48.128;8.320;2022-09-17T21:42:44;1.60;;;1.50;;
12846;SDS011;6492;48.128;8.320;2022-09-17T21:46:49;3.53;;;1.70;;
12846;SDS011;6492;48.128;8.320;2022-09-17T21:51:02;2.80;;;1.90;;
12846;SDS011;6492;48.128;8.320;2022-09-17T21:55:07;4.93;;;3.57;;
12846;SDS011;6492;48.128;8.320;2022-09-17T21:59:11;4.80;;;2.30;;
12846;SDS011;6492;48.128;8.320;2022-09-17T22:03:13;2.70;;;1.83;;
12846;SDS011;6492;48.128;8.320;2022-09-17T22:07:16;7.37;;;6.47;;
12846;SDS011;6492;48.128;8.320;2022-09-17T22:11:21;5.10;;;3.30;;
12846;SDS011;6492;48.128;8.320;2022-09-17T22:15:24;5.23;;;2.37;;
12846;SDS011;6492;48.128;8.320;2022-09-17T22:19:26;3.40;;;2.20;;
12846;SDS011;6492;48.128;8.320;2022-09-17T22:23:28;3.47;;;1.83;;
12846;SDS011;6492;48.128;8.320;2022-09-17T22:27:37;9.97;;;4.23;;
12846;SDS011;6492;48.128;8.320;2022-09-17T22:31:39;7.87;;;3.80;;
12846;SDS011;6492;48.128;8.320;2022-09-17T22:35:41;2.27;;;1.40;;
12846;SDS011;6492;48.128;8.320;2022-09-17T22:39:43;2.97;;;1.83;;
12846;SDS011;6492;48.128;8.320;2022-09-17T22:43:46;8.33;;;3.43;;
12846;SDS011;6492;48.128;8.320;2022-09-17T22:47:51;3.33;;;1.90;;
12846;SDS011;6492;48.128;8.320;2022-09-17T22:51:53;7.97;;;5.90;;
12846;SDS011;6492;48.128;8.320;2022-09-17T22:55:55;5.53;;;2.40;;
12846;SDS011;6492;48.128;8.320;2022-09-17T22:59:58;2.83;;;1.80;;
12846;SDS011;6492;48.128;8.320;2022-09-17T23:04:01;6.30;;;5.43;;
12846;SDS011;6492;48.128;8.320;2022-09-17T23:08:04;8.27;;;5.03;;
12846;SDS011;6492;48.128;8.320;2022-09-17T23:12:06;4.33;;;2.53;;
12846;SDS011;6492;48.128;8.320;2022-09-17T23:16:10;5.37;;;3.93;;
12846;SDS011;6492;48.128;8.320;2022-09-17T23:20:11;4.13;;;2.13;;
12846;SDS011;6492;48.128;8.320;2022-09-17T23:24:14;3.27;;;2.57;;
12846;SDS011;6492;48.128;8.320;2022-09-17T23:28:18;5.00;;;3.30;;
12846;SDS011;6492;48.128;8.320;2022-09-17T23:32:21;4.63;;;3.17;;
12846;SDS011;6492;48.128;8.320;2022-09-17T23:36:24;2.83;;;2.50;;
12846;SDS011;6492;48.128;8.320;2022-09-17T23:40:27;4.60;;;3.40;;
12846;SDS011;6492;48.128;8.320;2022-09-17T23:44:29;5.40;;;2.83;;
12846;SDS011;6492;48.128;8.320;2022-09-17T23:48:32;3.30;;;2.50;;
12846;SDS011;6492;48.128;8.320;2022-09-17T23:52:34;4.87;;;2.77;;
12846;SDS011;6492;48.128;8.320;2022-09-17T23:56:36;6.57;;;3.43;;
